Carlton, Louisiana
Current Conditions -  °F | °C
As of 11:15 AM on Saturday 25 Oct 2014 (Local Time) from KRSN Reporting Station
Clear Clear  
Wind Chill: 73°   Ceiling: Unl
Heat Index: 73°   Visibility: 10mi
Dew Point: 57°   Wind: 3mph
Humidity: 57%   Direction: 300°WNW
Pressure: 30.22"   Gusts: NA
Location:  32.5064°N, 92.3457°W
Report Text: KRSN 251615Z AUTO 30003KT 10SM CLR 23/14 A3022 RMK AO2 T02270138
Loading
Personal Weather Stations






























Interactive Weather Map
Tropical Storm Tracking
New forecast layout! Learn more

10-Day Weather Forecast

Advertisements
Track Severe Weather on mobile